sensor_id;sensor_type;location;lat;lon;timestamp;P1;durP1;ratioP1;P2;durP2;ratioP2
13419;SDS011;6781;58.440;15.470;2022-09-09T00:01:36;1.00;;;1.00;;
13419;SDS011;6781;58.440;15.470;2022-09-09T00:04:21;0.85;;;0.80;;
13419;SDS011;6781;58.440;15.470;2022-09-09T00:06:59;1.13;;;1.05;;
13419;SDS011;6781;58.440;15.470;2022-09-09T00:09:34;1.23;;;0.90;;
13419;SDS011;6781;58.440;15.470;2022-09-09T00:12:10;0.80;;;0.80;;
13419;SDS011;6781;58.440;15.470;2022-09-09T00:14:41;1.42;;;0.80;;
13419;SDS011;6781;58.440;15.470;2022-09-09T00:17:18;2.05;;;1.02;;
13419;SDS011;6781;58.440;15.470;2022-09-09T00:20:00;0.80;;;0.80;;
13419;SDS011;6781;58.440;15.470;2022-09-09T00:22:36;0.82;;;0.82;;
13419;SDS011;6781;58.440;15.470;2022-09-09T00:25:11;0.93;;;0.93;;
13419;SDS011;6781;58.440;15.470;2022-09-09T00:27:45;1.52;;;0.90;;
13419;SDS011;6781;58.440;15.470;2022-09-09T00:30:15;1.02;;;1.02;;
13419;SDS011;6781;58.440;15.470;2022-09-09T00:33:12;2.20;;;1.00;;
13419;SDS011;6781;58.440;15.470;2022-09-09T00:35:57;3.10;;;1.07;;
13419;SDS011;6781;58.440;15.470;2022-09-09T00:38:40;1.02;;;1.02;;
13419;SDS011;6781;58.440;15.470;2022-09-09T00:41:28;1.10;;;1.10;;
13419;SDS011;6781;58.440;15.470;2022-09-09T02:12:43;1.30;;;1.20;;
13419;SDS011;6781;58.440;15.470;2022-09-09T02:15:35;2.50;;;1.17;;
13419;SDS011;6781;58.440;15.470;2022-09-09T02:18:41;1.30;;;0.82;;
13419;SDS011;6781;58.440;15.470;2022-09-09T02:21:27;1.77;;;1.02;;
13419;SDS011;6781;58.440;15.470;2022-09-09T04:42:19;2.85;;;0.93;;
13419;SDS011;6781;58.440;15.470;2022-09-09T04:45:00;2.10;;;0.93;;
13419;SDS011;6781;58.440;15.470;2022-09-09T04:47:41;2.85;;;0.98;;
13419;SDS011;6781;58.440;15.470;2022-09-09T04:50:22;1.42;;;1.00;;
13419;SDS011;6781;58.440;15.470;2022-09-09T04:53:07;2.25;;;1.20;;
13419;SDS011;6781;58.440;15.470;2022-09-09T04:55:49;2.60;;;0.93;;
13419;SDS011;6781;58.440;15.470;2022-09-09T05:49:51;5.40;;;2.42;;
13419;SDS011;6781;58.440;15.470;2022-09-09T05:52:20;4.05;;;2.72;;
13419;SDS011;6781;58.440;15.470;2022-09-09T05:55:02;2.00;;;1.50;;
13419;SDS011;6781;58.440;15.470;2022-09-09T06:40:07;1.10;;;1.10;;
13419;SDS011;6781;58.440;15.470;2022-09-09T06:42:36;2.22;;;1.38;;
13419;SDS011;6781;58.440;15.470;2022-09-09T06:45:14;2.08;;;1.33;;
13419;SDS011;6781;58.440;15.470;2022-09-09T06:47:43;0.82;;;0.82;;
13419;SDS011;6781;58.440;15.470;2022-09-09T06:50:13;3.55;;;1.60;;
13419;SDS011;6781;58.440;15.470;2022-09-09T06:52:54;3.67;;;1.20;;
13419;SDS011;6781;58.440;15.470;2022-09-09T06:58:24;1.85;;;1.10;;
13419;SDS011;6781;58.440;15.470;2022-09-09T07:01:03;1.88;;;1.10;;
13419;SDS011;6781;58.440;15.470;2022-09-09T07:03:33;2.53;;;1.27;;
13419;SDS011;6781;58.440;15.470;2022-09-09T07:06:17;2.85;;;1.20;;
13419;SDS011;6781;58.440;15.470;2022-09-09T07:09:00;2.08;;;1.15;;
13419;SDS011;6781;58.440;15.470;2022-09-09T07:11:44;1.48;;;1.02;;
13419;SDS011;6781;58.440;15.470;2022-09-09T07:14:29;2.45;;;0.98;;
13419;SDS011;6781;58.440;15.470;2022-09-09T07:17:10;3.40;;;1.30;;
13419;SDS011;6781;58.440;15.470;2022-09-09T07:20:02;4.07;;;1.50;;
13419;SDS011;6781;58.440;15.470;2022-09-09T07:22:44;1.55;;;1.15;;
13419;SDS011;6781;58.440;15.470;2022-09-09T07:25:24;1.88;;;1.25;;
13419;SDS011;6781;58.440;15.470;2022-09-09T07:28:06;2.38;;;1.30;;
13419;SDS011;6781;58.440;15.470;2022-09-09T07:34:03;1.60;;;1.20;;
13419;SDS011;6781;58.440;15.470;2022-09-09T07:36:45;2.60;;;1.50;;
13419;SDS011;6781;58.440;15.470;2022-09-09T07:39:26;2.92;;;1.23;;
13419;SDS011;6781;58.440;15.470;2022-09-09T07:42:09;4.40;;;1.30;;
13419;SDS011;6781;58.440;15.470;2022-09-09T07:44:50;1.52;;;1.15;;
13419;SDS011;6781;58.440;15.470;2022-09-09T07:47:31;1.65;;;1.13;;
13419;SDS011;6781;58.440;15.470;2022-09-09T08:24:33;1.75;;;1.27;;
13419;SDS011;6781;58.440;15.470;2022-09-09T08:27:13;3.50;;;1.20;;
13419;SDS011;6781;58.440;15.470;2022-09-09T08:29:54;3.90;;;1.42;;
13419;SDS011;6781;58.440;15.470;2022-09-09T08:32:23;2.30;;;1.10;;
13419;SDS011;6781;58.440;15.470;2022-09-09T08:34:51;2.60;;;1.40;;
13419;SDS011;6781;58.440;15.470;2022-09-09T08:37:23;2.60;;;1.23;;
13419;SDS011;6781;58.440;15.470;2022-09-09T08:40:04;1.30;;;1.20;;
13419;SDS011;6781;58.440;15.470;2022-09-09T08:42:49;4.07;;;1.30;;
13419;SDS011;6781;58.440;15.470;2022-09-09T08:45:23;1.58;;;1.20;;
13419;SDS011;6781;58.440;15.470;2022-09-09T08:48:03;4.13;;;1.35;;
13419;SDS011;6781;58.440;15.470;2022-09-09T08:50:40;1.50;;;1.38;;
13419;SDS011;6781;58.440;15.470;2022-09-09T08:53:14;2.58;;;1.10;;
13419;SDS011;6781;58.440;15.470;2022-09-09T08:56:00;4.57;;;1.35;;
13419;SDS011;6781;58.440;15.470;2022-09-09T08:58:31;4.47;;;1.38;;
13419;SDS011;6781;58.440;15.470;2022-09-09T09:01:22;3.45;;;1.42;;
13419;SDS011;6781;58.440;15.470;2022-09-09T09:04:03;1.50;;;1.30;;
13419;SDS011;6781;58.440;15.470;2022-09-09T09:06:54;2.35;;;1.10;;
13419;SDS011;6781;58.440;15.470;2022-09-09T09:09:44;2.25;;;1.52;;
13419;SDS011;6781;58.440;15.470;2022-09-09T09:12:24;3.30;;;1.20;;
13419;SDS011;6781;58.440;15.470;2022-09-09T09:14:56;1.35;;;0.90;;
13419;SDS011;6781;58.440;15.470;2022-09-09T09:17:40;1.02;;;1.02;;
13419;SDS011;6781;58.440;15.470;2022-09-09T09:20:11;5.20;;;1.20;;
13419;SDS011;6781;58.440;15.470;2022-09-09T09:22:53;4.00;;;1.10;;
13419;SDS011;6781;58.440;15.470;2022-09-09T09:34:48;2.28;;;1.10;;
13419;SDS011;6781;58.440;15.470;2022-09-09T09:37:32;5.32;;;1.08;;
13419;SDS011;6781;58.440;15.470;2022-09-09T09:40:10;1.30;;;1.20;;
13419;SDS011;6781;58.440;15.470;2022-09-09T09:42:47;2.10;;;1.10;;
13419;SDS011;6781;58.440;15.470;2022-09-09T09:45:32;1.25;;;1.10;;
13419;SDS011;6781;58.440;15.470;2022-09-09T09:51:17;2.33;;;1.40;;
13419;SDS011;6781;58.440;15.470;2022-09-09T09:53:48;2.80;;;1.00;;
13419;SDS011;6781;58.440;15.470;2022-09-09T09:56:17;2.60;;;1.13;;
13419;SDS011;6781;58.440;15.470;2022-09-09T09:58:54;1.30;;;1.10;;
13419;SDS011;6781;58.440;15.470;2022-09-09T10:01:35;2.67;;;1.17;;
13419;SDS011;6781;58.440;15.470;2022-09-09T10:04:13;4.55;;;1.10;;
13419;SDS011;6781;58.440;15.470;2022-09-09T10:06:49;1.20;;;1.00;;
13419;SDS011;6781;58.440;15.470;2022-09-09T10:09:23;2.30;;;1.10;;
13419;SDS011;6781;58.440;15.470;2022-09-09T10:11:54;2.85;;;1.10;;
13419;SDS011;6781;58.440;15.470;2022-09-09T10:14:40;1.50;;;1.13;;
13419;SDS011;6781;58.440;15.470;2022-09-09T10:17:30;3.28;;;1.20;;
13419;SDS011;6781;58.440;15.470;2022-09-09T10:20:12;2.67;;;0.90;;
13419;SDS011;6781;58.440;15.470;2022-09-09T10:22:52;3.13;;;1.20;;
13419;SDS011;6781;58.440;15.470;2022-09-09T10:25:35;1.38;;;1.20;;
13419;SDS011;6781;58.440;15.470;2022-09-09T10:28:31;2.30;;;1.00;;
13419;SDS011;6781;58.440;15.470;2022-09-09T10:31:10;4.82;;;1.10;;
13419;SDS011;6781;58.440;15.470;2022-09-09T10:33:49;2.72;;;1.17;;
13419;SDS011;6781;58.440;15.470;2022-09-09T10:36:23;3.63;;;1.30;;
13419;SDS011;6781;58.440;15.470;2022-09-09T10:38:59;1.15;;;1.10;;
13419;SDS011;6781;58.440;15.470;2022-09-09T10:41:40;3.20;;;1.10;;
13419;SDS011;6781;58.440;15.470;2022-09-09T10:47:11;2.25;;;1.20;;
13419;SDS011;6781;58.440;15.470;2022-09-09T10:53:35;2.58;;;1.30;;
13419;SDS011;6781;58.440;15.470;2022-09-09T10:59:36;2.78;;;1.30;;
13419;SDS011;6781;58.440;15.470;2022-09-09T11:02:12;4.68;;;1.38;;
13419;SDS011;6781;58.440;15.470;2022-09-09T11:04:48;2.25;;;1.17;;
13419;SDS011;6781;58.440;15.470;2022-09-09T11:07:25;1.00;;;0.93;;
13419;SDS011;6781;58.440;15.470;2022-09-09T11:09:59;1.30;;;1.20;;
13419;SDS011;6781;58.440;15.470;2022-09-09T11:12:33;2.67;;;1.00;;
13419;SDS011;6781;58.440;15.470;2022-09-09T11:15:12;0.90;;;0.90;;
13419;SDS011;6781;58.440;15.470;2022-09-09T11:17:44;1.92;;;1.40;;
13419;SDS011;6781;58.440;15.470;2022-09-09T11:20:14;1.00;;;0.90;;
13419;SDS011;6781;58.440;15.470;2022-09-09T11:22:43;2.70;;;1.30;;
13419;SDS011;6781;58.440;15.470;2022-09-09T11:25:20;1.33;;;1.00;;
13419;SDS011;6781;58.440;15.470;2022-09-09T11:27:57;1.40;;;1.10;;
13419;SDS011;6781;58.440;15.470;2022-09-09T11:30:42;1.67;;;1.15;;
13419;SDS011;6781;58.440;15.470;2022-09-09T11:33:34;1.55;;;1.10;;
13419;SDS011;6781;58.440;15.470;2022-09-09T11:36:26;4.35;;;1.00;;
13419;SDS011;6781;58.440;15.470;2022-09-09T11:39:24;2.97;;;1.42;;
13419;SDS011;6781;58.440;15.470;2022-09-09T11:42:15;4.35;;;1.25;;
13419;SDS011;6781;58.440;15.470;2022-09-09T11:44:52;4.95;;;1.38;;
13419;SDS011;6781;58.440;15.470;2022-09-09T11:50:07;2.85;;;1.20;;
13419;SDS011;6781;58.440;15.470;2022-09-09T11:52:38;3.08;;;1.30;;
13419;SDS011;6781;58.440;15.470;2022-09-09T11:55:24;3.05;;;1.20;;
13419;SDS011;6781;58.440;15.470;2022-09-09T11:57:57;4.30;;;1.30;;
13419;SDS011;6781;58.440;15.470;2022-09-09T12:00:32;2.28;;;1.60;;
13419;SDS011;6781;58.440;15.470;2022-09-09T12:58:36;3.53;;;1.10;;
13419;SDS011;6781;58.440;15.470;2022-09-09T13:01:20;4.15;;;1.98;;
13419;SDS011;6781;58.440;15.470;2022-09-09T13:04:15;1.75;;;1.30;;
13419;SDS011;6781;58.440;15.470;2022-09-09T13:07:05;2.10;;;1.42;;
13419;SDS011;6781;58.440;15.470;2022-09-09T13:09:36;2.95;;;1.58;;
13419;SDS011;6781;58.440;15.470;2022-09-09T13:12:16;2.53;;;1.30;;
13419;SDS011;6781;58.440;15.470;2022-09-09T13:14:48;3.58;;;1.40;;
13419;SDS011;6781;58.440;15.470;2022-09-09T13:17:34;4.30;;;1.10;;
13419;SDS011;6781;58.440;15.470;2022-09-09T13:20:16;4.97;;;1.60;;
13419;SDS011;6781;58.440;15.470;2022-09-09T13:22:57;1.15;;;1.08;;
13419;SDS011;6781;58.440;15.470;2022-09-09T13:25:29;2.28;;;1.70;;
13419;SDS011;6781;58.440;15.470;2022-09-09T13:31:19;4.35;;;1.58;;
13419;SDS011;6781;58.440;15.470;2022-09-09T13:34:10;2.83;;;1.40;;
13419;SDS011;6781;58.440;15.470;2022-09-09T13:36:39;3.55;;;1.40;;
13419;SDS011;6781;58.440;15.470;2022-09-09T13:39:21;3.95;;;1.70;;
13419;SDS011;6781;58.440;15.470;2022-09-09T13:42:02;1.88;;;1.40;;
13419;SDS011;6781;58.440;15.470;2022-09-09T13:47:42;3.05;;;1.20;;
13419;SDS011;6781;58.440;15.470;2022-09-09T13:50:18;1.77;;;1.30;;
13419;SDS011;6781;58.440;15.470;2022-09-09T13:53:00;4.15;;;1.67;;
13419;SDS011;6781;58.440;15.470;2022-09-09T13:55:41;2.25;;;1.30;;
13419;SDS011;6781;58.440;15.470;2022-09-09T13:58:19;2.28;;;1.50;;
13419;SDS011;6781;58.440;15.470;2022-09-09T14:03:46;4.10;;;1.27;;
13419;SDS011;6781;58.440;15.470;2022-09-09T14:06:15;2.72;;;1.42;;
13419;SDS011;6781;58.440;15.470;2022-09-09T14:08:56;2.50;;;1.27;;
13419;SDS011;6781;58.440;15.470;2022-09-09T14:11:37;4.63;;;1.80;;
13419;SDS011;6781;58.440;15.470;2022-09-09T14:14:18;2.00;;;1.55;;
13419;SDS011;6781;58.440;15.470;2022-09-09T14:17:09;2.63;;;1.45;;
13419;SDS011;6781;58.440;15.470;2022-09-09T14:19:50;4.13;;;1.88;;
13419;SDS011;6781;58.440;15.470;2022-09-09T14:22:21;1.63;;;1.40;;
13419;SDS011;6781;58.440;15.470;2022-09-09T14:24:49;2.55;;;1.30;;
13419;SDS011;6781;58.440;15.470;2022-09-09T14:27:30;4.05;;;1.40;;
13419;SDS011;6781;58.440;15.470;2022-09-09T14:30:11;3.63;;;1.45;;
13419;SDS011;6781;58.440;15.470;2022-09-09T14:48:32;2.78;;;1.60;;
13419;SDS011;6781;58.440;15.470;2022-09-09T14:51:04;2.85;;;1.73;;
13419;SDS011;6781;58.440;15.470;2022-09-09T14:53:46;3.72;;;1.50;;
13419;SDS011;6781;58.440;15.470;2022-09-09T14:56:27;4.97;;;1.35;;
13419;SDS011;6781;58.440;15.470;2022-09-09T14:58:57;1.95;;;1.38;;
13419;SDS011;6781;58.440;15.470;2022-09-09T15:01:39;4.82;;;1.73;;
13419;SDS011;6781;58.440;15.470;2022-09-09T15:04:17;2.70;;;1.50;;
13419;SDS011;6781;58.440;15.470;2022-09-09T15:06:57;2.15;;;1.40;;
13419;SDS011;6781;58.440;15.470;2022-09-09T15:09:38;1.58;;;1.30;;
13419;SDS011;6781;58.440;15.470;2022-09-09T15:12:19;1.90;;;1.40;;
13419;SDS011;6781;58.440;15.470;2022-09-09T15:15:01;2.70;;;1.63;;
13419;SDS011;6781;58.440;15.470;2022-09-09T15:17:43;4.00;;;1.58;;
13419;SDS011;6781;58.440;15.470;2022-09-09T15:23:30;2.80;;;1.40;;
13419;SDS011;6781;58.440;15.470;2022-09-09T15:26:01;3.05;;;1.42;;
13419;SDS011;6781;58.440;15.470;2022-09-09T15:28:43;4.25;;;1.88;;
13419;SDS011;6781;58.440;15.470;2022-09-09T15:31:25;3.38;;;1.38;;
13419;SDS011;6781;58.440;15.470;2022-09-09T15:34:07;2.20;;;1.30;;
13419;SDS011;6781;58.440;15.470;2022-09-09T15:49:23;3.60;;;1.70;;
13419;SDS011;6781;58.440;15.470;2022-09-09T15:52:04;3.03;;;1.52;;
13419;SDS011;6781;58.440;15.470;2022-09-09T15:54:49;4.25;;;1.45;;
13419;SDS011;6781;58.440;15.470;2022-09-09T15:57:30;3.90;;;1.67;;
13419;SDS011;6781;58.440;15.470;2022-09-09T16:00:11;1.90;;;1.50;;
13419;SDS011;6781;58.440;15.470;2022-09-09T16:24:51;5.20;;;1.80;;
13419;SDS011;6781;58.440;15.470;2022-09-09T16:27:32;1.85;;;1.70;;
13419;SDS011;6781;58.440;15.470;2022-09-09T16:30:13;2.30;;;1.55;;
13419;SDS011;6781;58.440;15.470;2022-09-09T16:32:54;3.05;;;1.90;;
13419;SDS011;6781;58.440;15.470;2022-09-09T16:35:35;6.68;;;1.63;;
13419;SDS011;6781;58.440;15.470;2022-09-09T16:38:16;2.03;;;1.52;;
13419;SDS011;6781;58.440;15.470;2022-09-09T16:43:42;3.50;;;1.80;;
13419;SDS011;6781;58.440;15.470;2022-09-09T16:46:23;3.20;;;1.50;;
13419;SDS011;6781;58.440;15.470;2022-09-09T16:49:06;2.83;;;1.70;;
13419;SDS011;6781;58.440;15.470;2022-09-09T16:51:48;2.03;;;1.80;;
13419;SDS011;6781;58.440;15.470;2022-09-09T16:54:25;1.60;;;1.50;;
13419;SDS011;6781;58.440;15.470;2022-09-09T16:59:37;3.83;;;2.15;;
13419;SDS011;6781;58.440;15.470;2022-09-09T17:02:23;3.97;;;1.90;;
13419;SDS011;6781;58.440;15.470;2022-09-09T17:05:06;1.95;;;1.75;;
13419;SDS011;6781;58.440;15.470;2022-09-09T17:07:45;3.28;;;1.65;;
13419;SDS011;6781;58.440;15.470;2022-09-09T17:10:27;4.47;;;2.15;;
13419;SDS011;6781;58.440;15.470;2022-09-09T17:15:56;3.30;;;2.17;;
13419;SDS011;6781;58.440;15.470;2022-09-09T17:18:37;3.28;;;1.70;;
13419;SDS011;6781;58.440;15.470;2022-09-09T17:21:18;2.83;;;1.73;;
13419;SDS011;6781;58.440;15.470;2022-09-09T17:24:01;2.05;;;1.88;;
13419;SDS011;6781;58.440;15.470;2022-09-09T17:26:30;2.92;;;1.92;;
13419;SDS011;6781;58.440;15.470;2022-09-09T18:45:16;4.93;;;1.90;;
13419;SDS011;6781;58.440;15.470;2022-09-09T18:47:58;4.70;;;1.55;;
13419;SDS011;6781;58.440;15.470;2022-09-09T18:50:39;4.50;;;2.13;;
13419;SDS011;6781;58.440;15.470;2022-09-09T18:53:20;3.75;;;1.85;;
13419;SDS011;6781;58.440;15.470;2022-09-09T18:56:02;2.67;;;1.92;;
13419;SDS011;6781;58.440;15.470;2022-09-09T19:24:21;5.00;;;2.42;;
13419;SDS011;6781;58.440;15.470;2022-09-09T19:27:04;4.13;;;2.10;;
13419;SDS011;6781;58.440;15.470;2022-09-09T19:29:46;5.22;;;2.67;;
13419;SDS011;6781;58.440;15.470;2022-09-09T19:32:27;5.03;;;2.25;;
13419;SDS011;6781;58.440;15.470;2022-09-09T19:35:08;4.30;;;2.40;;
13419;SDS011;6781;58.440;15.470;2022-09-09T22:03:54;4.18;;;2.83;;
13419;SDS011;6781;58.440;15.470;2022-09-09T22:06:21;4.93;;;3.00;;
13419;SDS011;6781;58.440;15.470;2022-09-09T22:09:02;6.30;;;2.83;;
13419;SDS011;6781;58.440;15.470;2022-09-09T22:11:42;3.30;;;3.00;;
13419;SDS011;6781;58.440;15.470;2022-09-09T22:14:13;3.83;;;2.75;;
13419;SDS011;6781;58.440;15.470;2022-09-09T22:17:00;3.63;;;3.00;;
13419;SDS011;6781;58.440;15.470;2022-09-09T22:25:38;5.00;;;2.92;;
13419;SDS011;6781;58.440;15.470;2022-09-09T22:28:22;2.90;;;2.70;;
13419;SDS011;6781;58.440;15.470;2022-09-09T22:31:03;4.15;;;2.75;;
13419;SDS011;6781;58.440;15.470;2022-09-09T22:33:33;5.28;;;2.97;;
13419;SDS011;6781;58.440;15.470;2022-09-09T22:36:14;3.22;;;2.95;;
13419;SDS011;6781;58.440;15.470;2022-09-09T23:04:06;3.05;;;2.67;;
13419;SDS011;6781;58.440;15.470;2022-09-09T23:06:48;3.33;;;2.45;;
13419;SDS011;6781;58.440;15.470;2022-09-09T23:09:31;3.17;;;2.20;;
13419;SDS011;6781;58.440;15.470;2022-09-09T23:12:12;3.35;;;2.10;;
13419;SDS011;6781;58.440;15.470;2022-09-09T23:14:53;6.10;;;2.88;;
13419;SDS011;6781;58.440;15.470;2022-09-09T23:27:09;3.83;;;2.25;;
13419;SDS011;6781;58.440;15.470;2022-09-09T23:29:50;6.43;;;2.45;;
13419;SDS011;6781;58.440;15.470;2022-09-09T23:32:31;6.93;;;3.08;;
13419;SDS011;6781;58.440;15.470;2022-09-09T23:34:59;3.72;;;2.63;;
13419;SDS011;6781;58.440;15.470;2022-09-09T23:37:40;3.25;;;2.65;;
13419;SDS011;6781;58.440;15.470;2022-09-09T23:40:20;4.88;;;2.45;;
13419;SDS011;6781;58.440;15.470;2022-09-09T23:43:03;5.80;;;2.50;;
13419;SDS011;6781;58.440;15.470;2022-09-09T23:46:01;5.78;;;2.95;;
13419;SDS011;6781;58.440;15.470;2022-09-09T23:48:29;4.47;;;2.80;;
13419;SDS011;6781;58.440;15.470;2022-09-09T23:51:02;4.68;;;2.50;;
13419;SDS011;6781;58.440;15.470;2022-09-09T23:53:43;7.10;;;2.80;;
13419;SDS011;6781;58.440;15.470;2022-09-09T23:56:25;4.45;;;2.67;;
